Seven Sins — ZCOD6 — position and weather

sailwx.info

Track history (hours):
 
Tides and Currents Weather Stations Pressure Air Temp Water Temp Dewpoint Dewpoint Depression Visibility Wind Speed Wind Dir Waves Ship Positions

Seven Sins

Last reported at 2014-Nov-23 15:29 UTC. Time now 2014-Nov-23 16:08 UTC.
Position N 52°40' E 005°36'.

Length 43 m; draft 3.1 m.

Type: Pleasure craft. MMSI: 319425000.

Date/timePositionNaut miles runAvg speedWind from/ knotsBaromVisibWave heightAir tempDewpointWater temp
2014-Nov-23 15:29N 52°40' E 005°36'0 0.0
2014-Nov-23 14:29N 52°40' E 005°36'0 0.0
2014-Nov-23 13:33N 52°40' E 005°36'0 0.0
2014-Nov-23 12:29N 52°40' E 005°36'0 0.0
2014-Nov-23 11:33N 52°40' E 005°36'0 0.0
2014-Nov-23 10:29N 52°40' E 005°36'0 0.0
2014-Nov-23 09:29N 52°40' E 005°36'0 0.0
2014-Nov-23 08:29N 52°40' E 005°36'0 0.0
2014-Nov-23 07:32N 52°40' E 005°36'0 0.0
2014-Nov-23 06:33N 52°40' E 005°36'0 0.0
2014-Nov-23 05:29N 52°40' E 005°36'0 0.0
2014-Nov-23 04:27N 52°40' E 005°36'0 0.0
2014-Nov-23 03:33N 52°40' E 005°36'0 0.0
2014-Nov-23 02:33N 52°40' E 005°36'0 0.0
2014-Nov-23 01:33N 52°40' E 005°36'0 0.0
2014-Nov-23 00:33N 52°40' E 005°36'0 0.0
2014-Nov-22 23:33N 52°40' E 005°36'0 0.0
2014-Nov-22 22:29N 52°40' E 005°36'0 0.0
2014-Nov-22 21:27N 52°40' E 005°36'0 0.0
2014-Nov-22 20:33N 52°40' E 005°36'0 0.0
2014-Nov-22 19:21N 52°40' E 005°36'0 0.0
2014-Nov-22 18:33N 52°40' E 005°36'0 0.0
2014-Nov-22 17:20N 52°40' E 005°36'0 0.0
2014-Nov-22 16:33N 52°40' E 005°36'0 0.0
2014-Nov-22 15:33N 52°40' E 005°36'0 0.0
2014-Nov-22 14:32N 52°40' E 005°36'0 0.0
2014-Nov-22 13:29N 52°40' E 005°36'0 0.0
2014-Nov-22 12:32N 52°40' E 005°36'0 0.0
2014-Nov-22 11:29N 52°40' E 005°36'0 0.0
2014-Nov-22 10:32N 52°40' E 005°36'0 0.0
2014-Nov-22 09:29N 52°40' E 005°36'0 0.0
2014-Nov-22 08:33N 52°40' E 005°36'0 0.0
2014-Nov-22 07:32N 52°40' E 005°36'0 0.0
2014-Nov-22 06:33N 52°40' E 005°36'0 0.0
2014-Nov-22 05:29N 52°40' E 005°36'0 0.0
2014-Nov-22 04:33N 52°40' E 005°36'0 0.0
2014-Nov-22 03:33N 52°40' E 005°36'0 0.0
2014-Nov-22 02:27N 52°40' E 005°36'0 0.0
2014-Nov-22 01:33N 52°40' E 005°36'0 0.0
2014-Nov-22 00:21N 52°40' E 005°36'0 0.0
2014-Nov-21 23:29N 52°40' E 005°36'0 0.0
2014-Nov-21 22:26N 52°40' E 005°36'0 0.0
2014-Nov-21 21:15N 52°40' E 005°36'0 0.0
2014-Nov-21 20:17N 52°40' E 005°36'0 0.0
2014-Nov-21 19:33N 52°40' E 005°36'0 0.0
2014-Nov-21 18:32N 52°40' E 005°36'0 0.0
2014-Nov-21 17:27N 52°40' E 005°36'0 0.0
2014-Nov-21 16:12N 52°40' E 005°36'3 4.5
2014-Nov-21 15:33N 52°38' E 005°33'7 7.4
2014-Nov-21 14:33N 52°31' E 005°26'7 7.4
2014-Nov-21 13:34N 52°28' E 005°16'7 6.5
2014-Nov-21 12:33N 52°24' E 005°07'6 5.5
2014-Nov-21 11:34N 52°23' E 004°58'6 5.7
2014-Nov-21 10:34N 52°25' E 004°49'9 8.7
2014-Nov-21 09:33N 52°28' E 004°36'5 5.0
2014-Nov-21 08:33N 52°26' E 004°28'9 9.2
2014-Nov-21 07:33N 52°17' E 004°22'9 9.2
2014-Nov-21 06:33N 52°09' E 004°15'3 3.0
2014-Nov-21 05:32N 52°06' E 004°16'0 0.0
2014-Nov-21 04:32N 52°06' E 004°16'0 0.0
2014-Nov-21 03:26N 52°06' E 004°16'0 0.0
2014-Nov-21 02:32N 52°06' E 004°16'0 0.0
2014-Nov-21 01:32N 52°06' E 004°16'0 0.0
2014-Nov-21 00:32N 52°06' E 004°16'0 0.0
2014-Nov-20 23:23N 52°06' E 004°16'0 0.0
2014-Nov-20 22:32N 52°06' E 004°16'0 0.0
2014-Nov-20 21:32N 52°06' E 004°16'0 0.0
2014-Nov-20 20:32N 52°06' E 004°16'0 0.0
2014-Nov-20 19:32N 52°06' E 004°16'0 0.0
2014-Nov-20 18:32N 52°06' E 004°16'0 0.0
2014-Nov-20 17:29N 52°06' E 004°16'0 0.0
2014-Nov-20 16:32N 52°06' E 004°16'0 0.0
2014-Nov-20 15:29N 52°06' E 004°16'0 0.0
2014-Nov-20 14:29N 52°06' E 004°16'0 0.0
2014-Nov-20 13:32N 52°06' E 004°16'0 0.0
2014-Nov-20 12:29N 52°06' E 004°16'0 0.0
2014-Nov-20 11:29N 52°06' E 004°16'2 2.5
2014-Nov-20 10:33N 52°06' E 004°12'10 9.9
2014-Nov-20 09:33N 52°00' E 003°59'12 9.4
2014-Nov-20 08:15N 51°58' E 003°39'54 9.5
2014-Nov-20 02:33N 51°34' E 002°20'1211.2
2014-Nov-20 01:27N 51°24' E 002°08'1111.6
2014-Nov-20 00:32N 51°13' E 002°05'1212.1
2014-Nov-19 23:32N 51°08' E 001°48'  
Track history (hours):
 
Tides and Currents Weather Stations Pressure Air Temp Water Temp Dewpoint Dewpoint Depression Visibility Wind Speed Wind Dir Waves Ship Positions

Seven Sins

Last reported at 2014-Nov-23 15:29 UTC. Time now 2014-Nov-23 16:08 UTC.
Position N 52°40' E 005°36'.

Length 43 m; draft 3.1 m.

Type: Pleasure craft. MMSI: 319425000.

Date/timePositionNaut miles runAvg speedWind from/ knotsBaromVisibWave heightAir tempDewpointWater temp
2014-Nov-23 15:29N 52°40' E 005°36'0 0.0
2014-Nov-23 14:29N 52°40' E 005°36'0 0.0
2014-Nov-23 13:33N 52°40' E 005°36'0 0.0
2014-Nov-23 12:29N 52°40' E 005°36'0 0.0
2014-Nov-23 11:33N 52°40' E 005°36'0 0.0
2014-Nov-23 10:29N 52°40' E 005°36'0 0.0
2014-Nov-23 09:29N 52°40' E 005°36'0 0.0
2014-Nov-23 08:29N 52°40' E 005°36'0 0.0
2014-Nov-23 07:32N 52°40' E 005°36'0 0.0
2014-Nov-23 06:33N 52°40' E 005°36'0 0.0
2014-Nov-23 05:29N 52°40' E 005°36'0 0.0
2014-Nov-23 04:27N 52°40' E 005°36'0 0.0
2014-Nov-23 03:33N 52°40' E 005°36'0 0.0
2014-Nov-23 02:33N 52°40' E 005°36'0 0.0
2014-Nov-23 01:33N 52°40' E 005°36'0 0.0
2014-Nov-23 00:33N 52°40' E 005°36'0 0.0
2014-Nov-22 23:33N 52°40' E 005°36'0 0.0
2014-Nov-22 22:29N 52°40' E 005°36'0 0.0
2014-Nov-22 21:27N 52°40' E 005°36'0 0.0
2014-Nov-22 20:33N 52°40' E 005°36'0 0.0
2014-Nov-22 19:21N 52°40' E 005°36'0 0.0
2014-Nov-22 18:33N 52°40' E 005°36'0 0.0
2014-Nov-22 17:20N 52°40' E 005°36'0 0.0
2014-Nov-22 16:33N 52°40' E 005°36'0 0.0
2014-Nov-22 15:33N 52°40' E 005°36'0 0.0
2014-Nov-22 14:32N 52°40' E 005°36'0 0.0
2014-Nov-22 13:29N 52°40' E 005°36'0 0.0
2014-Nov-22 12:32N 52°40' E 005°36'0 0.0
2014-Nov-22 11:29N 52°40' E 005°36'0 0.0
2014-Nov-22 10:32N 52°40' E 005°36'0 0.0
2014-Nov-22 09:29N 52°40' E 005°36'0 0.0
2014-Nov-22 08:33N 52°40' E 005°36'0 0.0
2014-Nov-22 07:32N 52°40' E 005°36'0 0.0
2014-Nov-22 06:33N 52°40' E 005°36'0 0.0
2014-Nov-22 05:29N 52°40' E 005°36'0 0.0
2014-Nov-22 04:33N 52°40' E 005°36'0 0.0
2014-Nov-22 03:33N 52°40' E 005°36'0 0.0
2014-Nov-22 02:27N 52°40' E 005°36'0 0.0
2014-Nov-22 01:33N 52°40' E 005°36'0 0.0
2014-Nov-22 00:21N 52°40' E 005°36'0 0.0
2014-Nov-21 23:29N 52°40' E 005°36'0 0.0
2014-Nov-21 22:26N 52°40' E 005°36'0 0.0
2014-Nov-21 21:15N 52°40' E 005°36'0 0.0
2014-Nov-21 20:17N 52°40' E 005°36'0 0.0
2014-Nov-21 19:33N 52°40' E 005°36'0 0.0
2014-Nov-21 18:32N 52°40' E 005°36'0 0.0
2014-Nov-21 17:27N 52°40' E 005°36'0 0.0
2014-Nov-21 16:12N 52°40' E 005°36'3 4.5
2014-Nov-21 15:33N 52°38' E 005°33'7 7.4
2014-Nov-21 14:33N 52°31' E 005°26'7 7.4
2014-Nov-21 13:34N 52°28' E 005°16'7 6.5
2014-Nov-21 12:33N 52°24' E 005°07'6 5.5
2014-Nov-21 11:34N 52°23' E 004°58'6 5.7
2014-Nov-21 10:34N 52°25' E 004°49'9 8.7
2014-Nov-21 09:33N 52°28' E 004°36'5 5.0
2014-Nov-21 08:33N 52°26' E 004°28'9 9.2
2014-Nov-21 07:33N 52°17' E 004°22'9 9.2
2014-Nov-21 06:33N 52°09' E 004°15'3 3.0
2014-Nov-21 05:32N 52°06' E 004°16'0 0.0
2014-Nov-21 04:32N 52°06' E 004°16'0 0.0
2014-Nov-21 03:26N 52°06' E 004°16'0 0.0
2014-Nov-21 02:32N 52°06' E 004°16'0 0.0
2014-Nov-21 01:32N 52°06' E 004°16'0 0.0
2014-Nov-21 00:32N 52°06' E 004°16'0 0.0
2014-Nov-20 23:23N 52°06' E 004°16'0 0.0
2014-Nov-20 22:32N 52°06' E 004°16'0 0.0
2014-Nov-20 21:32N 52°06' E 004°16'0 0.0
2014-Nov-20 20:32N 52°06' E 004°16'0 0.0
2014-Nov-20 19:32N 52°06' E 004°16'0 0.0
2014-Nov-20 18:32N 52°06' E 004°16'0 0.0
2014-Nov-20 17:29N 52°06' E 004°16'0 0.0
2014-Nov-20 16:32N 52°06' E 004°16'0 0.0
2014-Nov-20 15:29N 52°06' E 004°16'0 0.0
2014-Nov-20 14:29N 52°06' E 004°16'0 0.0
2014-Nov-20 13:32N 52°06' E 004°16'0 0.0
2014-Nov-20 12:29N 52°06' E 004°16'0 0.0
2014-Nov-20 11:29N 52°06' E 004°16'2 2.5
2014-Nov-20 10:33N 52°06' E 004°12'10 9.9
2014-Nov-20 09:33N 52°00' E 003°59'12 9.4
2014-Nov-20 08:15N 51°58' E 003°39'54 9.5
2014-Nov-20 02:33N 51°34' E 002°20'1211.2
2014-Nov-20 01:27N 51°24' E 002°08'1111.6
2014-Nov-20 00:32N 51°13' E 002°05'1212.1
2014-Nov-19 23:32N 51°08' E 001°48'  

Dump ship's entire track history